Time;durP1;ratioP1;P1;durP2;ratioP2;P2;SDS_P1;SDS_P2;PMS_P1;PMS_P2;Temp;Humidity;BMP_temperature;BMP_pressure;BME280_temperature;BME280_humidity;BME280_pressure;Samples;Min_cycle;Max_cycle;Signal;HPM_P1;HPM_P2
2021/03/22 00:02:16;;;;;;;2.80;1.70;;;24.00;30.10;;;;;;4991868;28;20898;-59
2021/03/22 00:04:42;;;;;;;2.90;1.70;;;24.00;30.10;;;;;;4992339;28;20543;-60
2021/03/22 00:07:08;;;;;;;2.93;1.53;;;24.00;30.10;;;;;;4991474;28;20395;-60
2021/03/22 00:09:33;;;;;;;3.22;1.70;;;23.90;30.00;;;;;;4992275;28;20477;-60
2021/03/22 00:11:59;;;;;;;2.80;1.67;;;23.90;30.00;;;;;;4991992;28;20448;-59
2021/03/22 00:14:24;;;;;;;1.95;1.50;;;23.90;30.00;;;;;;4992056;28;20432;-60
2021/03/22 00:16:50;;;;;;;2.60;1.70;;;23.90;30.00;;;;;;4992101;28;20394;-59
2021/03/22 00:19:16;;;;;;;2.30;1.50;;;23.80;30.00;;;;;;4991605;28;20425;-59
2021/03/22 00:21:42;;;;;;;2.07;1.40;;;23.80;30.00;;;;;;4992145;28;20513;-59
2021/03/22 00:24:08;;;;;;;2.20;1.60;;;23.80;30.00;;;;;;5007126;28;20398;-60
2021/03/22 00:26:35;;;;;;;2.22;1.60;;;23.80;29.70;;;;;;4992105;28;20390;-60
2021/03/22 00:29:01;;;;;;;2.40;1.60;;;23.70;30.00;;;;;;4991939;28;20405;-59
2021/03/22 00:31:27;;;;;;;2.05;1.40;;;23.70;30.00;;;;;;4991376;28;20406;-59
2021/03/22 00:33:52;;;;;;;2.20;1.40;;;23.70;29.90;;;;;;4991980;28;20466;-60
2021/03/22 00:36:18;;;;;;;2.58;1.70;;;23.70;30.00;;;;;;4991889;28;20767;-59
2021/03/22 00:38:44;;;;;;;1.87;1.50;;;23.60;30.00;;;;;;5006899;28;20387;-59
2021/03/22 00:41:11;;;;;;;2.28;1.65;;;23.60;30.20;;;;;;4991329;28;20433;-60
2021/03/22 00:43:37;;;;;;;2.13;1.42;;;23.60;30.00;;;;;;4991938;28;20418;-59
2021/03/22 00:46:03;;;;;;;1.90;1.40;;;23.60;30.00;;;;;;4991673;28;20481;-59
2021/03/22 00:48:32;;;;;;;2.00;1.42;;;23.50;30.00;;;;;;4990562;28;20470;-59
2021/03/22 00:50:58;;;;;;;2.47;1.50;;;23.50;29.90;;;;;;4991895;28;20489;-59
2021/03/22 00:53:24;;;;;;;2.20;1.33;;;23.50;29.90;;;;;;4991100;28;20390;-59
2021/03/22 00:55:51;;;;;;;2.00;1.30;;;23.50;30.00;;;;;;4991748;28;20485;-59
2021/03/22 00:58:17;;;;;;;1.77;1.50;;;23.50;29.90;;;;;;4991928;28;20398;-60
2021/03/22 01:00:45;;;;;;;2.40;1.40;;;23.50;29.90;;;;;;4991523;28;20789;-59
2021/03/22 01:03:20;;;;;;;2.10;1.40;;;23.50;29.90;;;;;;4992396;28;20508;-59
2021/03/22 01:05:46;;;;;;;1.80;1.40;;;23.40;29.90;;;;;;4995441;28;20871;-59
2021/03/22 01:08:12;;;;;;;2.10;1.40;;;23.40;29.90;;;;;;4995308;28;20406;-59
2021/03/22 01:10:43;;;;;;;1.63;1.20;;;23.40;29.90;;;;;;4995309;28;20448;-59
2021/03/22 01:13:28;;;;;;;1.90;1.23;;;23.40;29.90;;;;;;4995178;28;20401;-59
2021/03/22 01:15:54;;;;;;;2.10;1.48;;;23.30;29.90;;;;;;4994948;28;20429;-59
2021/03/22 01:18:28;;;;;;;2.23;1.40;;;23.30;29.90;;;;;;4995048;28;20422;-59
2021/03/22 01:21:02;;;;;;;2.05;1.40;;;23.30;29.90;;;;;;4993560;28;20419;-60
2021/03/22 01:23:27;;;;;;;1.98;1.30;;;23.30;29.90;;;;;;4994856;28;20492;-59
2021/03/22 01:25:53;;;;;;;1.90;1.38;;;23.30;29.90;;;;;;4995094;28;20479;-60
2021/03/22 01:28:19;;;;;;;1.77;1.20;;;23.20;29.80;;;;;;4994910;28;20418;-60
2021/03/22 01:30:49;;;;;;;2.15;1.40;;;23.20;29.80;;;;;;4994880;28;20387;-60
2021/03/22 01:33:17;;;;;;;1.97;1.30;;;23.10;29.80;;;;;;4994301;28;20414;-60
2021/03/22 01:35:43;;;;;;;2.00;1.45;;;23.10;29.90;;;;;;4994710;28;20491;-59
2021/03/22 01:38:10;;;;;;;2.00;1.30;;;23.10;30.00;;;;;;4994860;28;20383;-60
2021/03/22 01:40:50;;;;;;;2.85;1.80;;;23.10;29.90;;;;;;4994617;28;20407;-59
2021/03/22 01:43:37;;;;;;;2.10;1.40;;;23.10;29.80;;;;;;4994361;28;20486;-60
2021/03/22 01:46:03;;;;;;;2.60;1.45;;;23.10;29.90;;;;;;4994573;28;20423;-59
2021/03/22 01:48:29;;;;;;;2.38;1.50;;;23.00;29.90;;;;;;4994567;28;20433;-58
2021/03/22 01:50:55;;;;;;;2.40;1.50;;;23.00;29.90;;;;;;4994499;28;20970;-58
2021/03/22 01:53:20;;;;;;;2.33;1.40;;;23.00;29.90;;;;;;4994197;28;20391;-58
2021/03/22 01:55:46;;;;;;;2.30;1.40;;;23.00;29.90;;;;;;4999301;28;20400;-58
2021/03/22 01:58:12;;;;;;;2.10;1.35;;;23.00;29.90;;;;;;5013969;28;20404;-59
2021/03/22 02:00:39;;;;;;;2.00;1.40;;;22.90;29.90;;;;;;5013953;28;20437;-59
2021/03/22 02:03:09;;;;;;;2.13;1.47;;;22.90;29.90;;;;;;5013957;28;20565;-59
2021/03/22 02:05:39;;;;;;;2.45;1.40;;;22.90;29.90;;;;;;5012325;28;20416;-58
2021/03/22 02:08:08;;;;;;;2.60;1.40;;;22.90;29.90;;;;;;5013831;28;20428;-58
2021/03/22 02:10:34;;;;;;;1.90;1.40;;;22.90;29.90;;;;;;5013827;28;20525;-59
2021/03/22 02:13:01;;;;;;;2.08;1.30;;;22.90;29.80;;;;;;5013646;28;20471;-58
2021/03/22 02:15:26;;;;;;;2.05;1.38;;;22.80;29.90;;;;;;5012687;28;20866;-58
2021/03/22 02:18:06;;;;;;;1.80;1.23;;;22.80;29.80;;;;;;5013678;28;20507;-58
2021/03/22 02:21:09;;;;;;;2.13;1.38;;;22.70;29.90;;;;;;5013447;28;20470;-58
2021/03/22 02:23:59;;;;;;;2.28;1.38;;;22.70;29.90;;;;;;5013391;28;20932;-58
2021/03/22 02:27:02;;;;;;;2.65;1.40;;;22.70;29.90;;;;;;5013543;28;20425;-58
2021/03/22 02:29:31;;;;;;;2.20;1.40;;;22.70;29.90;;;;;;5012987;28;20483;-58
2021/03/22 02:32:09;;;;;;;2.22;1.50;;;22.70;29.90;;;;;;5013391;28;20460;-58
2021/03/22 02:34:55;;;;;;;2.38;1.40;;;22.70;29.90;;;;;;5012157;28;20954;-58
2021/03/22 02:37:39;;;;;;;2.60;1.65;;;22.70;29.90;;;;;;5011663;28;20404;-58
2021/03/22 02:40:15;;;;;;;2.30;1.50;;;22.60;29.90;;;;;;5013291;28;20393;-58
2021/03/22 02:42:45;;;;;;;1.98;1.25;;;22.60;29.90;;;;;;5013259;28;20492;-58
2021/03/22 02:45:24;;;;;;;2.40;1.30;;;22.60;29.90;;;;;;5012936;28;20881;-59
2021/03/22 02:47:49;;;;;;;2.10;1.30;;;22.60;29.90;;;;;;5013013;28;20816;-58
2021/03/22 02:50:23;;;;;;;2.20;1.40;;;22.60;29.90;;;;;;5013025;28;20393;-59
2021/03/22 02:53:07;;;;;;;2.50;1.50;;;22.60;29.90;;;;;;5013079;28;20487;-58
2021/03/22 02:55:44;;;;;;;2.58;1.33;;;22.60;29.90;;;;;;5012491;28;20389;-58
2021/03/22 02:58:16;;;;;;;2.33;1.50;;;22.50;29.90;;;;;;5013027;28;20393;-59
2021/03/22 03:01:05;;;;;;;2.50;1.40;;;22.50;29.90;;;;;;5012842;28;20409;-59
2021/03/22 03:03:33;;;;;;;2.50;1.50;;;22.50;29.90;;;;;;5010794;28;20392;-58
2021/03/22 03:05:59;;;;;;;2.83;1.48;;;22.50;29.90;;;;;;5012687;28;20420;-58
2021/03/22 03:08:40;;;;;;;2.42;1.48;;;22.40;29.90;;;;;;5012695;28;20420;-58
2021/03/22 03:11:07;;;;;;;2.20;1.33;;;22.40;29.90;;;;;;5012639;28;20480;-59
2021/03/22 03:13:33;;;;;;;2.13;1.30;;;22.40;29.90;;;;;;5012181;28;20750;-59
2021/03/22 03:15:59;;;;;;;3.58;1.85;;;22.40;29.90;;;;;;5012656;28;20393;-58
2021/03/22 03:18:25;;;;;;;2.45;1.52;;;22.40;29.80;;;;;;5012406;28;20443;-59
2021/03/22 03:20:51;;;;;;;2.40;1.50;;;22.40;29.90;;;;;;5012526;28;20411;-58
2021/03/22 03:23:17;;;;;;;2.40;1.50;;;22.40;29.90;;;;;;5012254;28;20400;-58
2021/03/22 03:25:43;;;;;;;2.60;1.52;;;22.40;29.90;;;;;;5012398;28;20754;-59
2021/03/22 03:28:09;;;;;;;2.33;1.40;;;22.30;29.90;;;;;;5011646;28;20394;-59
2021/03/22 03:30:37;;;;;;;2.37;1.30;;;22.30;29.90;;;;;;5012337;28;20416;-58
2021/03/22 03:33:05;;;;;;;2.50;1.60;;;22.30;29.90;;;;;;5012209;28;20413;-58
2021/03/22 03:35:37;;;;;;;2.97;1.70;;;22.30;29.90;;;;;;5012198;28;20404;-58
2021/03/22 03:38:04;;;;;;;2.47;1.58;;;22.30;29.90;;;;;;5012285;28;20404;-58
2021/03/22 03:40:50;;;;;;;2.50;1.60;;;22.20;29.90;;;;;;5012202;28;20393;-58
2021/03/22 03:43:16;;;;;;;2.20;1.52;;;22.20;30.00;;;;;;5011728;28;20503;-59
2021/03/22 03:45:46;;;;;;;2.13;1.58;;;22.20;29.90;;;;;;5011903;28;20444;-58
2021/03/22 03:48:14;;;;;;;2.65;1.60;;;22.20;29.90;;;;;;5012014;28;20897;-58
2021/03/22 03:50:41;;;;;;;2.38;1.45;;;22.20;30.00;;;;;;5012092;28;20754;-58
2021/03/22 03:53:07;;;;;;;3.75;1.58;;;22.20;30.00;;;;;;5012360;28;20388;-59
2021/03/22 03:55:32;;;;;;;2.40;1.63;;;22.20;30.00;;;;;;5011588;28;20393;-58
2021/03/22 03:57:59;;;;;;;3.50;1.50;;;22.10;29.90;;;;;;5012063;28;20508;-58
2021/03/22 04:00:28;;;;;;;2.80;1.67;;;22.10;30.00;;;;;;5011912;28;20861;-58
2021/03/22 04:02:58;;;;;;;2.67;1.60;;;22.10;30.00;;;;;;5011839;28;20730;-58
2021/03/22 04:05:27;;;;;;;2.70;1.50;;;22.10;30.00;;;;;;5010117;28;20397;-59
2021/03/22 04:07:53;;;;;;;2.95;1.55;;;22.10;30.00;;;;;;5011911;28;20425;-58
2021/03/22 04:10:19;;;;;;;2.50;1.60;;;22.00;30.20;;;;;;5011117;28;20778;-61
2021/03/22 04:12:45;;;;;;;3.10;1.58;;;22.10;31.10;;;;;;5011541;28;20478;-59
2021/03/22 04:15:14;;;;;;;2.93;1.60;;;22.10;31.40;;;;;;5011343;28;20893;-58
2021/03/22 04:17:41;;;;;;;4.50;1.77;;;22.10;31.10;;;;;;5011649;28;20400;-58
2021/03/22 04:20:07;;;;;;;3.30;1.95;;;22.10;30.90;;;;;;5011609;28;20385;-62
2021/03/22 04:22:33;;;;;;;4.70;1.63;;;22.10;30.40;;;;;;5011394;28;20500;-61
2021/03/22 04:24:59;;;;;;;5.30;1.80;;;22.10;32.00;;;;;;5011386;28;20416;-61
2021/03/22 04:27:25;;;;;;;3.70;1.60;;;22.10;32.00;;;;;;5010541;28;20396;-61
2021/03/22 04:29:51;;;;;;;5.20;1.77;;;22.20;32.40;;;;;;5002579;28;20395;-58
2021/03/22 04:32:16;;;;;;;5.67;2.10;;;22.10;32.90;;;;;;4992027;28;20445;-58
2021/03/22 04:34:42;;;;;;;4.68;2.03;;;22.10;33.10;;;;;;4992423;28;20444;-59
2021/03/22 04:37:08;;;;;;;4.60;2.07;;;22.10;32.70;;;;;;4994199;28;20406;-61
2021/03/22 04:39:35;;;;;;;9.13;2.20;;;22.20;34.00;;;;;;5009801;28;20733;-58
2021/03/22 04:42:00;;;;;;;9.52;2.67;;;22.20;34.50;;;;;;5014131;28;20419;-58
2021/03/22 04:44:26;;;;;;;7.93;2.37;;;22.20;34.40;;;;;;5014662;28;20397;-58
2021/03/22 04:46:51;;;;;;;6.85;2.60;;;22.20;34.30;;;;;;5015265;28;20479;-58
2021/03/22 04:49:17;;;;;;;6.40;2.50;;;22.20;35.10;;;;;;5014807;28;20442;-59
2021/03/22 04:51:43;;;;;;;4.65;2.28;;;22.20;34.10;;;;;;5014917;28;20431;-59
2021/03/22 04:54:08;;;;;;;6.18;2.80;;;22.20;33.50;;;;;;5014495;28;20428;-59
2021/03/22 04:56:35;;;;;;;6.30;2.75;;;22.10;32.80;;;;;;5029119;28;20872;-59
2021/03/22 04:59:01;;;;;;;5.68;2.60;;;22.10;33.20;;;;;;5014774;28;20389;-59
2021/03/22 05:01:26;;;;;;;5.40;2.53;;;22.10;33.00;;;;;;5013112;28;20413;-58
2021/03/22 05:03:52;;;;;;;6.20;2.60;;;22.10;33.20;;;;;;5014729;28;20396;-58
2021/03/22 05:06:18;;;;;;;5.25;2.72;;;22.10;33.10;;;;;;5014411;28;20388;-59
2021/03/22 05:08:44;;;;;;;4.73;2.37;;;22.10;33.30;;;;;;5014431;28;20527;-59
2021/03/22 05:11:10;;;;;;;6.65;2.58;;;22.00;33.20;;;;;;5014779;28;20869;-59
2021/03/22 05:13:35;;;;;;;5.35;2.42;;;22.00;33.00;;;;;;5014349;28;20403;-59
2021/03/22 05:16:02;;;;;;;6.40;2.40;;;22.00;32.90;;;;;;5014793;28;20463;-58
2021/03/22 05:18:30;;;;;;;7.90;2.50;;;22.00;32.80;;;;;;5014674;28;20923;-58
2021/03/22 05:21:03;;;;;;;5.15;2.60;;;22.00;32.70;;;;;;5014586;28;20412;-59
2021/03/22 05:23:31;;;;;;;5.03;2.50;;;21.90;32.60;;;;;;5014097;28;20753;-59
2021/03/22 05:25:57;;;;;;;6.85;2.55;;;21.90;32.50;;;;;;5014687;28;21137;-60
2021/03/22 05:28:25;;;;;;;4.40;2.58;;;21.90;32.40;;;;;;5014419;28;20822;-59
2021/03/22 05:30:51;;;;;;;6.88;2.38;;;21.80;32.60;;;;;;5012568;28;20893;-60
2021/03/22 05:33:18;;;;;;;4.90;2.33;;;21.80;31.50;;;;;;5012182;28;20508;-59
2021/03/22 05:35:46;;;;;;;8.27;2.60;;;21.80;31.20;;;;;;5013585;28;20459;-60
2021/03/22 05:38:12;;;;;;;4.27;2.30;;;21.80;31.00;;;;;;5013411;28;20405;-59
2021/03/22 05:41:03;;;;;;;5.43;2.33;;;21.70;31.10;;;;;;5013777;28;20470;-59
2021/03/22 05:43:44;;;;;;;4.38;2.03;;;21.70;30.90;;;;;;5008547;28;20416;-58
2021/03/22 05:46:42;;;;;;;4.60;2.33;;;21.70;31.00;;;;;;5013414;28;20393;-59
2021/03/22 05:49:26;;;;;;;5.22;2.17;;;21.60;31.20;;;;;;5013408;28;20389;-60
2021/03/22 05:52:01;;;;;;;4.00;2.35;;;21.60;31.10;;;;;;5013573;28;20387;-60
2021/03/22 05:54:57;;;;;;;3.90;2.20;;;21.60;31.10;;;;;;5013472;28;20409;-60
2021/03/22 05:57:37;;;;;;;6.55;2.30;;;21.50;31.40;;;;;;5013973;28;20470;-60
2021/03/22 06:00:25;;;;;;;4.43;2.20;;;21.60;31.70;;;;;;5013913;28;20385;-60
2021/03/22 06:03:05;;;;;;;5.95;2.55;;;21.60;32.00;;;;;;5012073;28;20972;-59
2021/03/22 06:05:46;;;;;;;5.80;2.40;;;21.60;31.90;;;;;;5012793;28;20468;-59
2021/03/22 06:08:31;;;;;;;6.95;2.40;;;21.60;31.70;;;;;;5011448;28;20408;-59
2021/03/22 06:10:57;;;;;;;8.60;2.40;;;21.50;31.60;;;;;;5012063;28;20411;-59
2021/03/22 06:13:33;;;;;;;6.83;2.30;;;21.50;31.60;;;;;;5011131;28;20901;-59
2021/03/22 06:16:17;;;;;;;6.88;2.13;;;21.50;31.50;;;;;;5013606;28;20392;-59
2021/03/22 06:19:08;;;;;;;8.68;2.38;;;21.50;31.50;;;;;;5013623;28;20384;-59
2021/03/22 06:21:36;;;;;;;5.70;2.10;;;21.50;31.50;;;;;;5013047;28;20420;-59
2021/03/22 06:24:25;;;;;;;6.30;2.10;;;21.50;31.50;;;;;;5013715;28;20388;-59
2021/03/22 06:26:57;;;;;;;5.00;2.15;;;21.50;31.50;;;;;;5013386;28;20843;-59
2021/03/22 06:29:31;;;;;;;6.05;2.20;;;21.40;31.50;;;;;;5013180;28;21036;-59
2021/03/22 06:32:03;;;;;;;5.43;2.10;;;21.50;31.50;;;;;;5013130;28;20455;-59
2021/03/22 06:34:53;;;;;;;5.82;2.50;;;21.40;32.10;;;;;;5013276;28;20380;-59
2021/03/22 06:37:23;;;;;;;7.32;2.47;;;21.40;31.60;;;;;;5013216;28;20436;-59
2021/03/22 06:39:57;;;;;;;4.90;2.20;;;21.40;31.40;;;;;;5012856;28;20448;-59
2021/03/22 06:42:25;;;;;;;4.68;2.35;;;21.40;31.30;;;;;;5013070;28;20916;-58
2021/03/22 06:44:53;;;;;;;5.47;2.40;;;21.30;31.30;;;;;;5013151;28;20510;-60
2021/03/22 06:47:20;;;;;;;5.63;2.50;;;21.30;31.60;;;;;;5012904;28;20502;-60
2021/03/22 06:50:11;;;;;;;5.63;2.67;;;21.30;31.70;;;;;;5012544;28;20939;-60
2021/03/22 06:52:40;;;;;;;5.45;2.53;;;21.30;32.00;;;;;;5012926;28;20819;-60
2021/03/22 06:55:34;;;;;;;4.23;2.47;;;21.30;31.90;;;;;;5012786;28;20487;-60
2021/03/22 06:58:00;;;;;;;5.20;2.58;;;21.30;31.80;;;;;;5012778;28;20482;-60
2021/03/22 07:00:31;;;;;;;4.67;2.40;;;21.30;31.70;;;;;;5012640;28;20393;-60
2021/03/22 07:03:03;;;;;;;5.30;2.42;;;21.30;31.70;;;;;;5012601;28;20877;-60
2021/03/22 07:05:39;;;;;;;5.25;2.67;;;21.20;31.60;;;;;;5012177;28;20373;-59
2021/03/22 07:08:18;;;;;;;4.15;2.20;;;21.20;31.50;;;;;;5012579;28;20401;-59
2021/03/22 07:10:54;;;;;;;4.45;2.35;;;21.20;31.60;;;;;;5012597;28;20745;-60
2021/03/22 07:13:24;;;;;;;5.63;2.63;;;21.20;31.50;;;;;;5012717;28;20463;-60
2021/03/22 07:15:52;;;;;;;4.40;2.33;;;21.20;31.60;;;;;;5012268;28;20392;-60
2021/03/22 07:18:27;;;;;;;5.35;2.60;;;21.20;31.50;;;;;;5012240;28;20389;-60
2021/03/22 07:21:03;;;;;;;5.40;2.00;;;21.20;31.40;;;;;;5012368;28;20404;-60
2021/03/22 07:23:36;;;;;;;7.60;4.38;;;21.20;31.50;;;;;;5011886;28;20396;-60
2021/03/22 07:26:29;;;;;;;6.47;3.00;;;21.20;31.30;;;;;;5012540;28;20386;-60
2021/03/22 07:29:23;;;;;;;6.22;2.80;;;21.10;31.40;;;;;;5012437;28;20389;-60
2021/03/22 07:31:55;;;;;;;7.25;4.15;;;21.10;31.70;;;;;;5012028;28;20881;-60
2021/03/22 07:34:26;;;;;;;7.30;3.47;;;21.20;31.60;;;;;;5012235;28;20389;-60
2021/03/22 07:37:26;;;;;;;9.05;2.90;;;21.20;31.70;;;;;;5012256;28;20487;-60
2021/03/22 07:40:18;;;;;;;6.22;2.83;;;21.20;31.60;;;;;;5011987;28;20413;-60
2021/03/22 07:43:02;;;;;;;7.15;3.00;;;21.30;31.80;;;;;;5012006;28;20490;-59
2021/03/22 07:45:50;;;;;;;8.27;4.22;;;21.30;31.80;;;;;;5011892;28;20381;-59
2021/03/22 07:48:54;;;;;;;6.68;3.63;;;21.40;33.10;;;;;;5010689;28;20758;-60
2021/03/22 07:51:34;;;;;;;112.83;100.70;;;21.50;32.40;;;;;;5011936;28;20442;-59
2021/03/22 07:54:30;;;;;;;46.60;40.65;;;21.50;32.10;;;;;;5011933;28;20451;-59
2021/03/22 07:57:09;;;;;;;38.58;32.00;;;21.50;32.00;;;;;;4981106;28;20407;-60
2021/03/22 07:59:43;;;;;;;311.00;223.20;;;21.60;31.90;;;;;;5011351;28;20389;-59
2021/03/22 08:02:22;;;;;;;74.07;53.45;;;21.60;31.70;;;;;;5011909;28;20511;-59
2021/03/22 08:05:05;;;;;;;83.97;57.60;;;21.60;32.20;;;;;;5011641;28;20861;-59
2021/03/22 08:07:43;;;;;;;60.77;43.50;;;21.60;31.70;;;;;;5011506;28;20859;-59
2021/03/22 08:10:40;;;;;;;47.05;34.35;;;21.60;31.80;;;;;;5011656;28;20389;-60
2021/03/22 08:13:36;;;;;;;41.70;29.27;;;21.60;32.10;;;;;;5010908;28;20892;-60
2021/03/22 08:16:53;;;;;;;34.08;25.40;;;21.60;32.10;;;;;;5011568;28;20388;-60
2021/03/22 08:19:26;;;;;;;30.40;22.90;;;21.60;31.90;;;;;;4978319;28;20409;-60
2021/03/22 08:22:18;;;;;;;28.75;21.40;;;21.70;31.90;;;;;;5010951;28;21035;-59
2021/03/22 08:25:25;;;;;;;27.10;20.45;;;21.70;31.70;;;;;;5009315;28;20393;-59
2021/03/22 08:28:13;;;;;;;24.95;18.85;;;21.80;31.50;;;;;;4954032;28;20396;-59
2021/03/22 08:30:58;;;;;;;25.73;18.48;;;21.90;31.40;;;;;;5011056;28;20492;-59
2021/03/22 08:33:52;;;;;;;23.05;16.98;;;22.10;31.20;;;;;;5010077;28;20951;-59
2021/03/22 08:36:36;;;;;;;22.10;16.48;;;22.10;31.00;;;;;;5011921;28;20389;-59
2021/03/22 08:39:36;;;;;;;21.77;16.63;;;22.30;30.80;;;;;;5011512;28;20389;-59
2021/03/22 08:42:08;;;;;;;23.85;19.25;;;22.40;30.60;;;;;;4997848;28;20436;-61
2021/03/22 08:44:56;;;;;;;19.55;14.73;;;22.50;30.50;;;;;;5011464;28;20393;-59
2021/03/22 08:47:41;;;;;;;19.00;13.40;;;22.60;30.20;;;;;;5011441;28;20393;-59
2021/03/22 08:50:22;;;;;;;18.40;13.00;;;22.70;30.20;;;;;;5011432;28;20917;-59
2021/03/22 08:52:57;;;;;;;16.63;11.85;;;22.70;30.10;;;;;;5011247;28;20393;-59
2021/03/22 08:55:26;;;;;;;15.35;11.02;;;22.80;30.30;;;;;;5011314;28;21356;-59
2021/03/22 08:58:05;;;;;;;15.60;10.55;;;22.80;30.50;;;;;;5010908;28;20479;-59
2021/03/22 09:00:34;;;;;;;14.75;10.20;;;22.90;30.50;;;;;;5011157;28;20393;-59
2021/03/22 09:03:21;;;;;;;14.85;9.68;;;23.10;30.00;;;;;;5011347;28;20500;-59
2021/03/22 09:06:25;;;;;;;16.40;9.30;;;23.30;29.70;;;;;;5000625;28;20404;-59
2021/03/22 09:08:51;;;;;;;11.97;8.37;;;23.50;29.60;;;;;;5010658;28;20404;-60
2021/03/22 09:11:17;;;;;;;12.63;8.43;;;23.50;29.50;;;;;;5010771;28;20381;-60
2021/03/22 09:14:09;;;;;;;12.00;7.50;;;23.60;29.30;;;;;;5010622;28;20472;-59
2021/03/22 09:16:44;;;;;;;9.40;6.53;;;23.60;29.30;;;;;;5008392;28;20393;-60
2021/03/22 09:19:10;;;;;;;9.52;5.72;;;23.70;29.30;;;;;;5010883;28;20877;-60
2021/03/22 09:21:47;;;;;;;33.38;27.92;;;23.80;29.60;;;;;;5010579;28;20503;-60
2021/03/22 09:24:41;;;;;;;18.08;15.75;;;23.80;29.50;;;;;;5011104;28;20422;-59
2021/03/22 09:29:46;;;;;;;13.33;9.00;;;23.90;29.30;;;;;;5014361;28;20558;-60
2021/03/22 09:32:33;;;;;;;11.20;7.93;;;23.80;29.20;;;;;;5014346;28;20767;-59
2021/03/22 09:35:17;;;;;;;11.50;8.23;;;23.80;29.10;;;;;;5004328;28;20401;-59
2021/03/22 09:37:47;;;;;;;12.07;8.55;;;23.80;29.10;;;;;;5013988;28;20385;-59
2021/03/22 09:40:25;;;;;;;11.65;8.55;;;23.80;28.90;;;;;;5013045;28;20780;-59
2021/03/22 09:43:06;;;;;;;11.35;8.10;;;23.80;29.00;;;;;;5014294;28;20958;-59
2021/03/22 09:45:33;;;;;;;10.85;7.90;;;23.80;28.90;;;;;;5014041;28;20427;-60
2021/03/22 09:48:05;;;;;;;9.20;7.20;;;23.80;28.90;;;;;;5012698;28;20397;-59
2021/03/22 09:50:33;;;;;;;9.75;7.00;;;23.80;29.00;;;;;;5012865;28;20404;-59
2021/03/22 09:53:09;;;;;;;8.98;6.80;;;23.80;28.90;;;;;;5014123;28;20392;-60
2021/03/22 09:55:52;;;;;;;11.05;7.10;;;23.80;28.80;;;;;;5012636;28;20393;-59
2021/03/22 09:58:30;;;;;;;8.77;6.78;;;23.90;28.90;;;;;;5013959;28;20393;-59
2021/03/22 10:01:13;;;;;;;8.48;6.13;;;23.80;28.80;;;;;;5013907;28;20516;-60
2021/03/22 10:04:07;;;;;;;7.68;5.80;;;23.80;28.80;;;;;;5013543;28;20388;-59
2021/03/22 10:06:39;;;;;;;7.43;5.53;;;23.80;28.70;;;;;;5008274;28;20401;-59
2021/03/22 10:09:08;;;;;;;9.23;5.82;;;23.80;28.80;;;;;;5012525;28;20476;-59
2021/03/22 10:11:41;;;;;;;7.47;5.60;;;23.80;28.80;;;;;;5013749;28;20443;-59
2021/03/22 10:14:14;;;;;;;7.13;5.30;;;23.80;28.70;;;;;;5012407;28;20389;-60
2021/03/22 10:16:41;;;;;;;7.90;5.50;;;23.80;28.70;;;;;;5012468;28;20891;-59
2021/03/22 10:19:25;;;;;;;6.90;5.05;;;23.80;28.70;;;;;;5012335;28;20896;-59
2021/03/22 10:22:04;;;;;;;6.93;4.93;;;23.80;28.70;;;;;;5011888;28;20474;-59
2021/03/22 10:24:52;;;;;;;6.50;4.50;;;23.80;28.50;;;;;;5012336;28;20389;-59
2021/03/22 10:27:24;;;;;;;6.65;4.90;;;23.80;28.70;;;;;;5013454;28;20463;-59
2021/03/22 10:29:50;;;;;;;7.10;4.45;;;23.90;28.70;;;;;;5013020;28;20745;-59
2021/03/22 10:32:22;;;;;;;6.45;4.35;;;23.90;28.70;;;;;;5013238;28;20455;-60
2021/03/22 10:34:54;;;;;;;6.40;4.50;;;23.90;28.70;;;;;;5013434;28;20731;-60
2021/03/22 10:37:33;;;;;;;6.97;4.40;;;23.90;28.60;;;;;;5012872;28;20472;-60
2021/03/22 10:40:15;;;;;;;6.22;4.15;;;23.90;28.50;;;;;;5012825;28;20750;-59
2021/03/22 10:42:41;;;;;;;6.20;4.05;;;24.00;28.60;;;;;;5013151;28;20896;-60
2021/03/22 10:45:29;;;;;;;6.53;4.00;;;24.10;28.40;;;;;;5013154;28;20475;-59
2021/03/22 10:47:57;;;;;;;6.20;3.90;;;24.20;28.40;;;;;;5012676;28;20456;-60
2021/03/22 10:50:26;;;;;;;7.38;4.70;;;24.30;28.30;;;;;;5013002;28;20400;-60
2021/03/22 10:53:09;;;;;;;6.40;4.73;;;24.30;28.30;;;;;;5013065;28;20428;-59
2021/03/22 10:55:37;;;;;;;7.72;5.10;;;24.40;28.10;;;;;;5012804;28;20429;-60
2021/03/22 10:58:06;;;;;;;7.22;5.05;;;24.40;28.60;;;;;;5012549;28;20415;-59
2021/03/22 11:00:36;;;;;;;8.75;5.72;;;24.50;28.10;;;;;;5012840;28;20397;-59
2021/03/22 11:03:04;;;;;;;8.57;5.00;;;24.50;28.20;;;;;;5012803;28;20393;-59
2021/03/22 11:05:40;;;;;;;9.10;4.80;;;24.60;28.30;;;;;;5012843;28;20496;-59
2021/03/22 11:08:20;;;;;;;9.00;4.90;;;24.60;28.30;;;;;;5012577;28;20397;-59
2021/03/22 11:10:46;;;;;;;9.60;4.80;;;24.50;28.30;;;;;;5012670;28;20869;-59
2021/03/22 11:13:19;;;;;;;7.90;4.57;;;24.60;28.30;;;;;;5012602;28;20430;-59
2021/03/22 11:15:49;;;;;;;9.88;5.00;;;24.80;28.20;;;;;;5012183;28;20404;-60
2021/03/22 11:18:17;;;;;;;8.38;5.55;;;24.70;28.10;;;;;;5012459;28;20438;-59
2021/03/22 11:20:44;;;;;;;9.57;5.30;;;24.70;28.40;;;;;;5012432;28;20808;-59
2021/03/22 11:23:29;;;;;;;11.85;5.45;;;24.70;28.60;;;;;;5012344;28;20397;-59
2021/03/22 11:25:57;;;;;;;16.25;7.25;;;24.70;29.00;;;;;;5011969;28;20405;-60
2021/03/22 11:28:30;;;;;;;13.32;6.60;;;24.60;30.00;;;;;;5012359;28;20932;-61
2021/03/22 11:31:00;;;;;;;12.50;5.80;;;24.60;29.60;;;;;;5012378;28;20892;-61
2021/03/22 11:33:29;;;;;;;14.57;5.40;;;24.70;29.90;;;;;;5012110;28;20400;-62
2021/03/22 11:36:03;;;;;;;69.88;19.15;;;24.70;30.20;;;;;;5011913;28;20388;-61
2021/03/22 11:38:52;;;;;;;98.97;29.70;;;24.60;31.90;;;;;;5012146;28;20892;-62
2021/03/22 11:42:00;;;;;;;58.92;17.90;;;24.60;35.10;;;;;;5012045;28;20405;-61
2021/03/22 11:44:30;;;;;;;33.78;11.50;;;24.60;38.30;;;;;;5010812;28;20429;-60
2021/03/22 11:47:18;;;;;;;28.30;10.27;;;24.60;39.50;;;;;;5011949;28;20480;-62
2021/03/22 11:49:47;;;;;;;28.42;9.73;;;24.60;40.10;;;;;;5010023;28;20757;-61
2021/03/22 11:52:27;;;;;;;26.80;9.80;;;24.60;40.90;;;;;;5011966;28;20435;-61
2021/03/22 11:55:07;;;;;;;23.98;9.05;;;24.60;39.90;;;;;;5011875;28;20393;-61
2021/03/22 11:57:38;;;;;;;30.13;9.45;;;24.60;40.60;;;;;;5011875;28;20891;-60
2021/03/22 12:00:20;;;;;;;28.67;11.32;;;24.50;39.90;;;;;;5011635;28;20487;-61
2021/03/22 12:02:51;;;;;;;25.98;9.20;;;24.60;39.20;;;;;;5010496;28;20431;-62
2021/03/22 12:05:38;;;;;;;25.90;9.25;;;24.50;37.90;;;;;;5011933;28;20421;-61
2021/03/22 12:08:34;;;;;;;22.92;8.45;;;24.50;37.70;;;;;;5011408;28;20939;-60
2021/03/22 12:11:28;;;;;;;21.65;8.45;;;24.40;37.00;;;;;;5011720;28;20401;-61
2021/03/22 12:13:56;;;;;;;19.27;7.60;;;24.40;36.70;;;;;;5011476;28;20385;-61
2021/03/22 12:16:33;;;;;;;20.58;7.68;;;24.40;36.40;;;;;;5011344;28;20535;-61
2021/03/22 12:19:05;;;;;;;25.85;9.18;;;24.40;36.50;;;;;;5011709;28;20389;-61
2021/03/22 12:21:31;;;;;;;29.80;11.30;;;24.40;36.70;;;;;;5011435;28;20417;-61
2021/03/22 12:23:58;;;;;;;24.48;8.88;;;24.40;37.20;;;;;;5011053;28;20395;-61
2021/03/22 12:26:24;;;;;;;21.15;8.25;;;24.50;36.40;;;;;;5011329;28;20535;-61
2021/03/22 12:29:00;;;;;;;19.57;7.60;;;24.50;35.60;;;;;;5011633;28;20821;-61
2021/03/22 12:31:54;;;;;;;20.35;7.47;;;24.50;36.00;;;;;;5011400;28;20471;-61
2021/03/22 12:34:23;;;;;;;29.70;9.75;;;24.60;36.80;;;;;;5008454;28;20416;-62
2021/03/22 12:36:50;;;;;;;21.88;8.07;;;24.70;38.10;;;;;;5010222;28;20389;-61
2021/03/22 12:39:23;;;;;;;18.50;6.90;;;24.70;36.80;;;;;;5011368;28;20389;-62
2021/03/22 12:41:52;;;;;;;16.33;6.88;;;24.80;37.60;;;;;;5010950;28;20459;-61
2021/03/22 12:44:18;;;;;;;15.82;6.20;;;24.80;38.70;;;;;;5011420;28;20464;-61
2021/03/22 12:46:44;;;;;;;13.07;5.20;;;24.80;35.30;;;;;;5010125;28;20846;-61
2021/03/22 12:49:13;;;;;;;13.85;5.57;;;24.80;34.10;;;;;;5011497;28;20506;-61
2021/03/22 12:51:39;;;;;;;72.47;33.80;;;25.00;33.80;;;;;;5011361;28;20393;-62
2021/03/22 12:54:04;;;;;;;98.82;49.67;;;25.00;34.60;;;;;;5010957;28;20451;-61
2021/03/22 12:56:30;;;;;;;51.13;25.83;;;25.00;32.80;;;;;;5010682;28;20396;-61
2021/03/22 12:58:59;;;;;;;32.30;16.30;;;25.10;31.60;;;;;;5011550;28;20483;-62
2021/03/22 13:01:26;;;;;;;27.02;13.63;;;25.10;30.70;;;;;;5014576;28;20454;-61
2021/03/22 13:03:52;;;;;;;27.00;13.55;;;25.30;30.30;;;;;;5014466;28;20401;-62
2021/03/22 13:06:20;;;;;;;25.15;12.85;;;25.30;30.20;;;;;;5015066;28;20749;-62
2021/03/22 13:08:46;;;;;;;27.42;13.02;;;25.40;30.10;;;;;;5015157;28;20455;-62
2021/03/22 13:11:14;;;;;;;23.25;12.60;;;25.50;29.70;;;;;;5015212;28;20384;-62
2021/03/22 13:13:40;;;;;;;23.33;11.82;;;25.60;29.60;;;;;;5014944;28;20451;-62
2021/03/22 13:16:06;;;;;;;23.40;11.73;;;25.70;29.30;;;;;;5014543;28;20389;-62
2021/03/22 13:18:35;;;;;;;23.52;11.48;;;25.80;29.20;;;;;;5013711;28;20804;-62
2021/03/22 13:21:14;;;;;;;21.30;10.32;;;25.90;29.00;;;;;;5014622;28;20419;-62